createdAt,value
2023-03-12T00:01:13.916Z,4.10
2023-03-12T00:03:40.556Z,4.11
2023-03-12T00:06:10.838Z,4.14
2023-03-12T00:08:37.441Z,4.14
2023-03-12T00:11:14.451Z,4.17
2023-03-12T00:13:40.792Z,4.17
2023-03-12T00:16:14.428Z,4.19
2023-03-12T00:18:41.364Z,4.20
2023-03-12T00:21:08.141Z,4.22
2023-03-12T00:23:34.991Z,4.24
2023-03-12T00:26:06.760Z,4.21
2023-03-12T00:28:33.090Z,4.22
2023-03-12T00:30:59.505Z,4.25
2023-03-12T00:33:28.196Z,4.24
2023-03-12T00:35:54.989Z,4.25
2023-03-12T00:38:21.335Z,4.26
2023-03-12T00:40:47.644Z,4.27
2023-03-12T00:43:14.263Z,4.30
2023-03-12T00:45:40.612Z,4.34
2023-03-12T00:48:07.251Z,4.38
2023-03-12T00:50:33.550Z,4.38
2023-03-12T00:53:00.030Z,4.41
2023-03-12T00:55:26.352Z,4.41
2023-03-12T00:57:52.660Z,4.42
2023-03-12T01:00:19.109Z,4.43
2023-03-12T01:02:45.472Z,4.33
2023-03-12T01:05:12.706Z,4.41
2023-03-12T01:07:39.952Z,4.39
2023-03-12T01:10:06.953Z,4.40
2023-03-12T01:12:33.253Z,4.40
2023-03-12T01:14:59.581Z,4.39
2023-03-12T01:17:25.898Z,4.41
2023-03-12T01:19:52.366Z,4.41
2023-03-12T01:22:18.694Z,4.43
2023-03-12T01:24:44.975Z,4.44
2023-03-12T01:27:11.228Z,4.43
2023-03-12T01:29:37.510Z,4.40
2023-03-12T01:32:03.863Z,4.37
2023-03-12T01:34:30.725Z,4.39
2023-03-12T01:36:57.289Z,4.43
2023-03-12T01:39:25.628Z,4.44
2023-03-12T01:41:51.993Z,4.45
2023-03-12T01:44:18.273Z,4.47
2023-03-12T01:46:45.898Z,4.50
2023-03-12T01:49:17.629Z,4.48
2023-03-12T01:51:43.900Z,4.49
2023-03-12T01:54:30.430Z,4.49
2023-03-12T01:56:57.208Z,4.47
2023-03-12T01:59:25.459Z,4.49
2023-03-12T02:01:52.568Z,4.49
2023-03-12T02:04:21.102Z,4.48
2023-03-12T02:06:53.290Z,4.50
2023-03-12T02:09:20.313Z,4.46
2023-03-12T02:11:46.738Z,4.45
2023-03-12T02:14:13.405Z,4.47
2023-03-12T02:16:40.103Z,4.44
2023-03-12T02:19:11.211Z,4.42
2023-03-12T02:21:38.521Z,4.43
2023-03-12T02:24:07.768Z,4.43
2023-03-12T02:26:35.800Z,4.46
2023-03-12T02:29:02.125Z,4.49
2023-03-12T02:31:40.769Z,4.52
2023-03-12T02:34:07.064Z,4.52
2023-03-12T02:36:33.505Z,4.50
2023-03-12T02:38:59.794Z,4.52
2023-03-12T02:41:31.405Z,4.52
2023-03-12T02:44:04.001Z,4.48
2023-03-12T02:46:33.767Z,4.49
2023-03-12T02:49:01.023Z,4.47
2023-03-12T02:51:27.343Z,4.49
2023-03-12T02:53:54.960Z,4.49
2023-03-12T02:56:26.154Z,4.47
2023-03-12T02:58:52.524Z,4.50
2023-03-12T03:01:18.912Z,4.52
2023-03-12T03:03:45.458Z,4.53
2023-03-12T03:06:12.145Z,4.54
2023-03-12T03:08:38.576Z,4.54
2023-03-12T03:11:05.194Z,4.51
2023-03-12T03:13:31.477Z,4.50
2023-03-12T03:15:59.790Z,4.49
2023-03-12T03:18:26.371Z,4.46
2023-03-12T03:21:14.325Z,4.46
2023-03-12T03:23:40.628Z,4.48
2023-03-12T03:26:06.882Z,4.42
2023-03-12T03:28:33.159Z,4.40
2023-03-12T03:31:01.711Z,4.39
2023-03-12T03:33:28.401Z,4.41
2023-03-12T03:35:55.548Z,4.41
2023-03-12T03:38:22.994Z,4.41
2023-03-12T03:40:49.255Z,4.43
2023-03-12T03:43:15.718Z,4.45
2023-03-12T03:45:44.691Z,4.43
2023-03-12T03:48:11.889Z,4.43
2023-03-12T03:50:39.024Z,4.42
2023-03-12T03:53:06.188Z,4.47
2023-03-12T03:55:35.527Z,4.44
2023-03-12T03:58:01.792Z,4.43
2023-03-12T04:00:28.095Z,4.45
2023-03-12T04:02:55.392Z,4.49
2023-03-12T04:05:21.901Z,4.49
2023-03-12T04:07:48.404Z,4.47
2023-03-12T04:10:14.700Z,4.46
2023-03-12T04:12:41.056Z,4.43
2023-03-12T04:15:07.596Z,4.43
2023-03-12T04:17:33.884Z,4.43
2023-03-12T04:20:00.253Z,4.44
2023-03-12T04:22:29.121Z,4.39
2023-03-12T04:24:55.620Z,4.37
2023-03-12T04:27:24.987Z,4.37
2023-03-12T04:29:51.306Z,4.35
2023-03-12T04:32:17.603Z,4.34
2023-03-12T04:34:43.941Z,4.28
2023-03-12T04:37:16.485Z,4.30
2023-03-12T04:39:43.973Z,4.28
2023-03-12T04:42:10.468Z,4.30
2023-03-12T04:44:36.827Z,4.23
2023-03-12T04:47:03.769Z,4.17
2023-03-12T04:49:31.956Z,4.19
2023-03-12T04:51:58.408Z,4.14
2023-03-12T04:54:24.736Z,4.09
2023-03-12T04:56:51.082Z,4.06
2023-03-12T04:59:17.426Z,4.02
2023-03-12T05:01:44.022Z,4.00
2023-03-12T05:04:10.515Z,4.03
2023-03-12T05:06:36.941Z,4.08
2023-03-12T05:09:03.977Z,4.08
2023-03-12T05:11:30.258Z,4.08
2023-03-12T05:13:56.660Z,4.08
2023-03-12T05:16:23.081Z,4.09
2023-03-12T05:18:49.409Z,4.09
2023-03-12T05:21:17.111Z,4.06
2023-03-12T05:23:44.404Z,4.05
2023-03-12T05:26:16.730Z,4.06
2023-03-12T05:28:43.061Z,4.04
2023-03-12T05:31:10.581Z,4.06
2023-03-12T05:33:40.096Z,4.06
2023-03-12T05:36:06.802Z,4.05
2023-03-12T05:38:33.198Z,4.02
2023-03-12T05:40:59.999Z,4.05
2023-03-12T05:43:26.758Z,4.03
2023-03-12T05:45:53.190Z,4.02
2023-03-12T05:48:19.911Z,4.00
2023-03-12T05:50:46.211Z,4.02
2023-03-12T05:53:12.702Z,4.00
2023-03-12T05:55:39.655Z,4.02
2023-03-12T05:58:06.927Z,4.07
2023-03-12T06:00:35.752Z,4.09
2023-03-12T06:03:02.098Z,4.13
2023-03-12T06:05:28.490Z,4.13
2023-03-12T06:07:54.860Z,4.09
2023-03-12T06:10:21.186Z,4.11
2023-03-12T06:12:47.674Z,4.11
2023-03-12T06:15:13.998Z,4.11
2023-03-12T06:17:40.284Z,4.12
2023-03-12T06:20:07.133Z,4.11
2023-03-12T06:22:33.735Z,4.04
2023-03-12T06:25:00.077Z,4.03
2023-03-12T06:27:26.418Z,4.05
2023-03-12T06:29:52.747Z,4.10
2023-03-12T06:32:19.098Z,4.10
2023-03-12T06:34:47.621Z,4.08
2023-03-12T06:37:13.862Z,4.02
2023-03-12T06:39:40.218Z,4.00
2023-03-12T06:42:06.719Z,3.99
2023-03-12T06:44:33.143Z,3.97
2023-03-12T06:46:59.563Z,3.94
2023-03-12T06:49:27.381Z,3.92
2023-03-12T06:51:53.832Z,3.90
2023-03-12T06:54:20.228Z,3.89
2023-03-12T06:56:47.777Z,3.90
2023-03-12T06:59:14.112Z,3.92
2023-03-12T07:01:40.462Z,3.93
2023-03-12T07:04:06.788Z,3.95
2023-03-12T07:06:33.244Z,3.95
2023-03-12T07:08:59.538Z,3.94
2023-03-12T07:11:25.891Z,4.00
2023-03-12T07:13:52.214Z,4.04
2023-03-12T07:16:18.851Z,4.07
2023-03-12T07:18:45.231Z,4.12
2023-03-12T07:21:11.575Z,4.14
2023-03-12T07:23:37.951Z,4.16
2023-03-12T07:26:05.494Z,4.20
2023-03-12T07:28:31.839Z,4.21
2023-03-12T07:31:01.850Z,4.18
2023-03-12T07:33:28.313Z,4.18
2023-03-12T07:35:54.815Z,4.21
2023-03-12T07:38:21.244Z,4.24
2023-03-12T07:40:54.665Z,4.29
2023-03-12T07:43:21.821Z,4.31
2023-03-12T07:45:48.812Z,4.35
2023-03-12T07:48:15.602Z,4.38
2023-03-12T07:50:42.129Z,4.43
2023-03-12T07:53:08.554Z,4.44
2023-03-12T07:55:35.302Z,4.49
2023-03-12T07:58:01.673Z,4.51
2023-03-12T08:00:28.381Z,4.54
2023-03-12T08:02:55.036Z,4.57
2023-03-12T08:05:24.729Z,4.60
2023-03-12T08:07:52.344Z,4.64
2023-03-12T08:10:18.898Z,4.67
2023-03-12T08:12:45.396Z,4.67
2023-03-12T08:15:12.858Z,4.68
2023-03-12T08:17:39.434Z,4.70
2023-03-12T08:20:09.357Z,4.71
2023-03-12T08:22:36.914Z,4.73
2023-03-12T08:25:05.156Z,4.75
2023-03-12T08:27:31.485Z,4.80
2023-03-12T08:29:57.859Z,4.84
2023-03-12T08:32:24.501Z,4.85
2023-03-12T08:34:50.952Z,4.83
2023-03-12T08:37:17.778Z,4.85
2023-03-12T08:39:44.866Z,4.91
2023-03-12T08:42:11.213Z,4.97
2023-03-12T08:44:37.579Z,5.01
2023-03-12T08:47:03.972Z,5.06
2023-03-12T08:49:30.231Z,5.11
2023-03-12T08:51:56.984Z,5.17
2023-03-12T08:54:23.666Z,5.23
2023-03-12T08:56:53.072Z,5.28
2023-03-12T08:59:20.581Z,5.33
2023-03-12T09:01:47.067Z,5.41
2023-03-12T09:04:13.473Z,5.44
2023-03-12T09:06:40.636Z,5.49
2023-03-12T09:09:08.983Z,5.55
2023-03-12T09:11:36.280Z,5.60
2023-03-12T09:16:49.241Z,5.76
2023-03-12T09:19:15.987Z,5.83
2023-03-12T09:21:42.559Z,5.90
2023-03-12T09:24:09.867Z,5.97
2023-03-12T09:26:36.165Z,6.05
2023-03-12T09:29:02.589Z,6.12
2023-03-12T09:31:28.916Z,6.19
2023-03-12T09:33:55.292Z,6.18
2023-03-12T09:36:21.595Z,6.31
2023-03-12T09:38:47.977Z,6.38
2023-03-12T09:41:17.433Z,6.44
2023-03-12T09:43:47.571Z,6.50
2023-03-12T09:46:17.882Z,6.53
2023-03-12T09:48:47.538Z,6.61
2023-03-12T09:51:17.216Z,6.67
2023-03-12T09:53:49.008Z,6.76
2023-03-12T09:56:17.543Z,6.84
2023-03-12T09:58:48.044Z,6.93
2023-03-12T10:01:33.436Z,7.03
2023-03-12T10:04:08.931Z,7.16
2023-03-12T10:06:39.249Z,7.25
2023-03-12T10:09:11.457Z,7.36
2023-03-12T10:12:07.175Z,7.44
2023-03-12T10:14:39.396Z,7.47
2023-03-12T10:17:21.527Z,7.64
2023-03-12T10:19:50.596Z,7.75
2023-03-12T10:22:28.180Z,7.82
2023-03-12T10:24:57.550Z,7.84
2023-03-12T10:27:26.694Z,8.00
2023-03-12T10:29:53.462Z,8.08
2023-03-12T10:32:22.402Z,8.13
2023-03-12T10:34:56.206Z,8.20
2023-03-12T10:37:24.802Z,8.29
2023-03-12T10:39:51.772Z,8.37
2023-03-12T10:42:19.493Z,8.43
2023-03-12T10:44:47.295Z,8.48
2023-03-12T10:47:21.585Z,8.54
2023-03-12T10:49:50.525Z,8.63
2023-03-12T10:52:17.691Z,8.73
2023-03-12T10:54:45.669Z,8.78
2023-03-12T10:57:18.686Z,8.83
2023-03-12T10:59:47.699Z,8.89
2023-03-12T11:02:31.945Z,8.91
2023-03-12T11:04:58.863Z,8.92
2023-03-12T11:07:28.175Z,8.91
2023-03-12T11:10:06.366Z,8.90
2023-03-12T11:12:36.012Z,8.91
2023-03-12T11:15:19.277Z,8.92
2023-03-12T11:17:45.605Z,8.97
2023-03-12T11:20:18.975Z,8.99
2023-03-12T11:22:45.288Z,8.96
2023-03-12T11:25:20.234Z,9.00
2023-03-12T11:27:49.544Z,9.02
2023-03-12T11:30:17.683Z,9.05
2023-03-12T11:32:45.934Z,9.07
2023-03-12T11:35:13.272Z,9.10
2023-03-12T11:37:40.562Z,9.12
2023-03-12T11:40:25.620Z,9.17
2023-03-12T11:43:04.845Z,9.22
2023-03-12T11:45:34.214Z,9.29
2023-03-12T11:48:06.923Z,9.35
2023-03-12T11:50:35.943Z,9.38
2023-03-12T11:53:02.175Z,9.41
2023-03-12T11:55:28.487Z,9.45
2023-03-12T11:57:54.790Z,9.45
2023-03-12T12:00:23.006Z,9.48
2023-03-12T12:03:11.741Z,9.52
2023-03-12T12:05:56.784Z,9.56
2023-03-12T12:08:28.494Z,9.63
2023-03-12T12:11:03.002Z,9.68
2023-03-12T12:13:43.314Z,9.72
2023-03-12T12:16:17.508Z,9.76
2023-03-12T12:18:46.642Z,9.79
2023-03-12T12:21:26.124Z,9.81
2023-03-12T12:24:12.729Z,9.83
2023-03-12T12:26:39.238Z,9.86
2023-03-12T12:29:12.137Z,9.91
2023-03-12T12:31:49.040Z,9.98
2023-03-12T12:34:18.121Z,10.06
2023-03-12T12:36:48.027Z,10.09
2023-03-12T12:39:24.033Z,10.15
2023-03-12T12:41:56.535Z,10.16
2023-03-12T12:44:26.988Z,10.16
2023-03-12T12:46:55.443Z,10.20
2023-03-12T12:49:36.114Z,10.23
2023-03-12T12:52:04.964Z,10.25
2023-03-12T12:54:34.265Z,10.33
2023-03-12T12:57:04.974Z,10.41
2023-03-12T12:59:52.998Z,10.44
2023-03-12T13:02:20.654Z,10.49
2023-03-12T13:04:48.177Z,10.50
2023-03-12T13:07:14.432Z,10.51
2023-03-12T13:09:44.900Z,10.51
2023-03-12T13:12:20.077Z,10.53
2023-03-12T13:14:47.015Z,10.58
2023-03-12T13:17:25.312Z,10.61
2023-03-12T13:20:00.967Z,10.64
2023-03-12T13:22:38.973Z,10.70
2023-03-12T13:25:17.385Z,10.75
2023-03-12T13:27:44.869Z,10.82
2023-03-12T13:30:29.854Z,10.87
2023-03-12T13:33:02.108Z,10.92
2023-03-12T13:35:38.030Z,10.97
2023-03-12T13:38:18.192Z,11.00
2023-03-12T13:40:55.815Z,11.08
2023-03-12T13:43:33.284Z,11.15
2023-03-12T13:45:59.667Z,11.26
2023-03-12T13:48:26.212Z,11.40
2023-03-12T13:50:58.712Z,11.54
2023-03-12T13:53:35.406Z,11.64
2023-03-12T13:56:04.260Z,11.74
2023-03-12T13:58:31.028Z,11.81
2023-03-12T14:01:02.571Z,11.86
2023-03-12T14:03:35.102Z,11.91
2023-03-12T14:06:09.194Z,11.99
2023-03-12T14:08:40.508Z,12.12
2023-03-12T14:11:09.675Z,12.25
2023-03-12T14:13:54.827Z,12.32
2023-03-12T14:16:27.360Z,12.36
2023-03-12T14:18:53.865Z,12.37
2023-03-12T14:21:21.832Z,12.35
2023-03-12T14:23:58.770Z,12.31
2023-03-12T14:26:28.082Z,12.31
2023-03-12T14:29:15.204Z,12.32
2023-03-12T14:31:42.295Z,12.32
2023-03-12T14:34:08.612Z,12.32
2023-03-12T14:36:58.386Z,12.30
2023-03-12T14:39:41.620Z,12.31
2023-03-12T14:42:08.910Z,12.35
2023-03-12T14:44:37.054Z,12.34
2023-03-12T14:47:07.434Z,12.31
2023-03-12T14:49:39.423Z,12.32
2023-03-12T14:52:05.904Z,12.35
2023-03-12T14:54:32.480Z,12.37
2023-03-12T14:56:58.823Z,12.40
2023-03-12T14:59:27.851Z,12.40
2023-03-12T15:01:58.649Z,12.40
2023-03-12T15:04:25.380Z,12.42
2023-03-12T15:06:57.226Z,12.38
2023-03-12T15:09:28.382Z,12.36
2023-03-12T15:11:59.630Z,12.36
2023-03-12T15:14:32.257Z,12.34
2023-03-12T15:17:00.401Z,12.32
2023-03-12T15:19:31.250Z,12.29
2023-03-12T15:21:57.858Z,12.24
2023-03-12T15:24:24.461Z,12.18
2023-03-12T15:26:50.909Z,12.14
2023-03-12T15:29:26.397Z,12.07
2023-03-12T15:31:59.888Z,12.01
2023-03-12T15:34:31.964Z,11.96
2023-03-12T15:36:59.533Z,11.92
2023-03-12T15:39:27.605Z,11.91
2023-03-12T15:41:54.718Z,11.87
2023-03-12T15:44:21.053Z,11.85
2023-03-12T15:46:52.294Z,11.83
2023-03-12T15:49:21.447Z,11.82
2023-03-12T15:52:24.751Z,11.78
2023-03-12T15:54:59.878Z,11.74
2023-03-12T15:57:26.183Z,11.73
2023-03-12T16:00:12.750Z,11.71
2023-03-12T16:02:46.182Z,11.70
2023-03-12T16:05:12.817Z,11.69
2023-03-12T16:07:39.180Z,11.72
2023-03-12T16:10:07.033Z,11.73
2023-03-12T16:12:38.721Z,11.71
2023-03-12T16:15:05.243Z,11.69
2023-03-12T16:17:31.569Z,11.69
2023-03-12T16:19:57.864Z,11.67
2023-03-12T16:22:24.237Z,11.67
2023-03-12T16:24:50.518Z,11.65
2023-03-12T16:27:23.746Z,11.65
2023-03-12T16:29:58.284Z,11.63
2023-03-12T16:32:24.677Z,11.60
2023-03-12T16:34:50.983Z,11.58
2023-03-12T16:37:17.388Z,11.56
2023-03-12T16:39:46.331Z,11.51
2023-03-12T16:42:17.229Z,11.46
2023-03-12T16:44:47.213Z,11.44
2023-03-12T16:47:14.035Z,11.43
2023-03-12T16:49:40.486Z,11.44
2023-03-12T16:52:20.246Z,11.43
2023-03-12T16:54:48.525Z,11.41
2023-03-12T16:57:21.047Z,11.41
2023-03-12T16:59:47.458Z,11.42
2023-03-12T17:02:17.985Z,11.39
2023-03-12T17:04:45.812Z,11.37
2023-03-12T17:07:12.642Z,11.35
2023-03-12T17:09:38.907Z,11.32
2023-03-12T17:12:06.274Z,11.27
2023-03-12T17:14:33.354Z,11.24
2023-03-12T17:16:59.695Z,11.21
2023-03-12T17:19:26.097Z,11.19
2023-03-12T17:21:52.623Z,11.17
2023-03-12T17:24:19.047Z,11.14
2023-03-12T17:26:46.448Z,11.12
2023-03-12T17:29:12.777Z,11.10
2023-03-12T17:31:39.076Z,11.10
2023-03-12T17:34:05.492Z,11.05
2023-03-12T17:36:31.768Z,11.02
2023-03-12T17:38:58.545Z,10.96
2023-03-12T17:41:26.983Z,10.91
2023-03-12T17:43:54.617Z,10.87
2023-03-12T17:46:20.982Z,10.81
2023-03-12T17:48:47.342Z,10.77
2023-03-12T17:51:13.822Z,10.74
2023-03-12T17:53:41.704Z,10.75
2023-03-12T17:56:08.042Z,10.75
2023-03-12T17:58:34.484Z,10.71
2023-03-12T18:01:00.869Z,10.70
2023-03-12T18:03:27.236Z,10.70
2023-03-12T18:05:53.612Z,10.70
2023-03-12T18:08:23.078Z,10.68
2023-03-12T18:10:49.555Z,10.68
2023-03-12T18:13:16.051Z,10.69
2023-03-12T18:15:42.368Z,10.71
2023-03-12T18:18:08.854Z,10.75
2023-03-12T18:20:39.304Z,10.74
2023-03-12T18:23:07.265Z,10.76
2023-03-12T18:25:33.619Z,10.76
2023-03-12T18:27:59.941Z,10.86
2023-03-12T18:30:28.098Z,10.97
2023-03-12T18:32:54.517Z,10.99
2023-03-12T18:35:22.172Z,10.96
2023-03-12T18:37:48.572Z,10.95
2023-03-12T18:40:14.876Z,10.93
2023-03-12T18:42:44.456Z,10.90
2023-03-12T18:45:11.712Z,10.89
2023-03-12T18:47:39.659Z,10.87
2023-03-12T18:50:06.653Z,10.86
2023-03-12T18:52:32.949Z,10.84
2023-03-12T18:54:59.443Z,10.84
2023-03-12T18:57:25.726Z,10.81
2023-03-12T18:59:52.110Z,10.81
2023-03-12T19:02:18.436Z,10.81
2023-03-12T19:04:44.858Z,10.82
2023-03-12T19:07:11.351Z,10.73
2023-03-12T19:09:37.684Z,10.81
2023-03-12T19:12:05.971Z,10.81
2023-03-12T19:14:32.321Z,10.81
2023-03-12T19:16:58.586Z,10.80
2023-03-12T19:19:25.068Z,10.81
2023-03-12T19:21:51.502Z,10.83
2023-03-12T19:24:17.893Z,10.84
2023-03-12T19:26:44.230Z,10.83
2023-03-12T19:29:10.665Z,10.80
2023-03-12T19:31:37.019Z,10.78
2023-03-12T19:34:03.375Z,10.78
2023-03-12T19:36:29.642Z,10.76
2023-03-12T19:38:55.956Z,10.75
2023-03-12T19:41:22.270Z,10.73
2023-03-12T19:43:48.689Z,10.73
2023-03-12T19:46:15.027Z,10.71
2023-03-12T19:48:41.424Z,10.70
2023-03-12T19:51:08.615Z,10.60
2023-03-12T19:53:35.062Z,10.70
2023-03-12T19:56:01.436Z,10.72
2023-03-12T19:58:28.094Z,10.74
2023-03-12T20:00:54.428Z,10.73
2023-03-12T20:03:22.190Z,10.74
2023-03-12T20:05:50.337Z,10.75
2023-03-12T20:08:16.695Z,10.76
2023-03-12T20:10:43.113Z,10.77
2023-03-12T20:13:12.793Z,10.77
2023-03-12T20:15:40.085Z,10.79
2023-03-12T20:18:06.427Z,10.79
2023-03-12T20:20:34.503Z,10.81
2023-03-12T20:23:00.850Z,10.82
2023-03-12T20:25:27.171Z,10.79
2023-03-12T20:27:56.234Z,10.81
2023-03-12T20:30:22.548Z,10.83
2023-03-12T20:32:49.004Z,10.83
2023-03-12T20:35:15.475Z,10.83
2023-03-12T20:37:41.956Z,10.82
2023-03-12T20:40:08.707Z,10.83
2023-03-12T20:42:35.258Z,10.85
2023-03-12T20:45:01.606Z,10.85
2023-03-12T20:47:28.055Z,10.84
2023-03-12T20:49:54.400Z,10.83
2023-03-12T20:52:20.705Z,10.78
2023-03-12T20:54:47.042Z,10.76
2023-03-12T20:57:13.328Z,10.75
2023-03-12T20:59:39.591Z,10.77
2023-03-12T21:02:05.942Z,10.78
2023-03-12T21:04:32.367Z,10.78
2023-03-12T21:06:58.665Z,10.79
2023-03-12T21:09:24.947Z,10.79
2023-03-12T21:11:51.409Z,10.80
2023-03-12T21:14:17.813Z,10.78
2023-03-12T21:16:44.176Z,10.77
2023-03-12T21:19:10.522Z,10.79
2023-03-12T21:21:37.924Z,10.76
2023-03-12T21:24:04.657Z,10.78
2023-03-12T21:26:31.130Z,10.79
2023-03-12T21:28:57.492Z,10.81
2023-03-12T21:31:23.894Z,10.78
2023-03-12T21:33:53.598Z,10.78
2023-03-12T21:36:19.996Z,10.78
2023-03-12T21:38:46.291Z,10.78
2023-03-12T21:41:14.232Z,10.78
2023-03-12T21:43:40.890Z,10.77
2023-03-12T21:46:08.147Z,10.77
2023-03-12T21:48:34.759Z,10.79
2023-03-12T21:51:02.652Z,10.81
2023-03-12T21:53:28.956Z,10.81
2023-03-12T21:55:59.138Z,10.83
2023-03-12T21:58:25.882Z,10.82
2023-03-12T22:00:52.297Z,10.81
2023-03-12T22:03:18.741Z,10.80
2023-03-12T22:05:50.411Z,10.78
2023-03-12T22:08:16.846Z,10.76
2023-03-12T22:10:46.040Z,10.76
2023-03-12T22:13:12.333Z,10.77
2023-03-12T22:15:38.951Z,10.76
2023-03-12T22:18:05.305Z,10.76
2023-03-12T22:20:34.132Z,10.78
2023-03-12T22:23:00.822Z,10.76
2023-03-12T22:25:27.168Z,10.78
2023-03-12T22:27:53.434Z,10.78
2023-03-12T22:30:19.932Z,10.75
2023-03-12T22:32:46.300Z,10.73
2023-03-12T22:35:12.684Z,10.69
2023-03-12T22:37:38.979Z,10.63
2023-03-12T22:40:07.166Z,10.61
2023-03-12T22:42:33.905Z,10.61
2023-03-12T22:45:00.178Z,10.60
2023-03-12T22:47:26.684Z,10.59
2023-03-12T22:49:53.139Z,10.57
2023-03-12T22:52:19.490Z,10.54
2023-03-12T22:54:45.967Z,10.52
2023-03-12T22:57:12.325Z,10.50
2023-03-12T22:59:38.702Z,10.51
2023-03-12T23:02:05.072Z,10.51
2023-03-12T23:04:31.504Z,10.50
2023-03-12T23:07:13.756Z,10.47
2023-03-12T23:09:41.576Z,10.45
2023-03-12T23:12:08.377Z,10.43
2023-03-12T23:14:34.836Z,10.43
2023-03-12T23:17:01.114Z,10.44
2023-03-12T23:19:31.393Z,10.45
2023-03-12T23:21:57.694Z,10.46
2023-03-12T23:24:24.035Z,10.47
2023-03-12T23:26:50.410Z,10.45
2023-03-12T23:29:16.802Z,10.45
2023-03-12T23:31:43.148Z,10.43
2023-03-12T23:34:12.624Z,10.43
2023-03-12T23:36:39.109Z,10.37
2023-03-12T23:39:05.713Z,10.40
2023-03-12T23:41:32.069Z,10.42
2023-03-12T23:43:58.881Z,10.39
2023-03-12T23:46:27.208Z,10.37
2023-03-12T23:48:53.974Z,10.34
2023-03-12T23:51:21.863Z,10.31
2023-03-12T23:53:50.010Z,10.31
2023-03-12T23:56:20.726Z,10.30
2023-03-12T23:58:49.807Z,10.31
